Leech Lake, Minnesota
Current Conditions -  °F | °C
As of 6:35 AM on Sunday 21 Dec 2014 (Local Time) from KY49 Reporting Station
Haze Haze  
Wind Chill: 20°   Ceiling: 400
Heat Index: 28°   Visibility: 4mi
Dew Point: 28°   Wind: 9mph
Humidity: 96%   Direction: 170°S
Pressure: 29.81"   Gusts: NA
Location:  47.0507°N, 94.6083°W
Report Text: KY49 211235Z AUTO 17008KT 4SM BR OVC004 M02/M02 A2981 RMK AO2 T10201025
Loading
Personal Weather Stations






























Interactive Weather Map New forecast layout! Learn more

10-Day Weather Forecast

Advertisements
Track Severe Weather on mobile